LEBZ

Badajoz Airport

Badajoz, Spain
TAF LEBZ 162300Z 1700/1724 30005KT CAVOK TX33/1716Z TN18/1705Z
Issued Valid From Valid To
Jul-16 @ 23:00 UTC
(an hour ago)
Jul-17 @ 00:00 UTC
(13 minutes ago)
Jul-18 @ 00:00 UTC
(in 24 hours)
Jul-17 @ 00:00 to Jul-18 @ 00:00
TAF LEBZ 162300Z 1700/1724 30005KT CAVOK TX33/1716Z TN18/1705Z
Wind Visibility Clouds
300° at 5 knots 10,000+ meters
  • No significant clouds
TAF LEBZ 162300Z 1700/1724 30005KT CAVOK TX33/1716Z TN18/1705Z
Issued Jul-16 @ 23:00 UTC
(an hour ago)
Valid From Jul-17 @ 00:00 UTC
(13 minutes ago)
Valid To Jul-18 @ 00:00 UTC
(in 24 hours)
Jul-17 @ 00:00 - Jul-18 @ 00:00
Wind Visibility
300° at 5 knots 10,000+ meters
Clouds
  • No significant clouds